Triathlon du Salagou - 10/06/2017

Kids 2 10-11 ans


Pl Do. Nom - Surname Prénom - Name S-Cat /cat Club - Team TEMPS - Time /sx Trans1 Tps1 Vit1 P1 Trans2 Tps2 Vit2 P2 Tps3 Vit3 P3
1 122 ESTEVE DORIAN MPU 1 La Grande Motte Triathlon 0:09:46.99 1 01:06.0 0:02:35.1 2,3 1 00:49.1 0:02:02.6 29,4 1 0:03:13.3 18,6 8
2 150 LOPEZ LOUISON MPU 2 SALONTRIATHLON 0:10:12.61 2 01:06.9 0:02:54.5 2,1 9 00:52.5 0:02:11.2 27,4 3 0:03:05.4 19,4 3
3 148 ARBIN MATHYS MPU 3 RODEZ TRIATHLON 12 0:10:16.93 3 01:00.1 0:02:57.9 2 17 00:56.7 0:02:09.5 27,8 2 0:03:11.0 18,8 5
4 106 HUGER RAPHAËL MPU 4 AQUASPORTS St Cyprien 0:10:19.41 4 01:02.2 0:02:37.6 2,3 2 00:45.2 0:02:29.9 24 18 0:03:21.8 17,8 15
5 142 TUPINIER JULES MPU 5 MAT MONTPELLIER 0:10:29.38 5 01:14.1 0:02:45.7 2,2 4 00:56.0 0:02:21.3 25,5 11 0:03:11.1 18,8 6
6 109 PRUVOST ADRIEN MPU 6 ATHLETIQUE CLUB CLERMONTAIS 0:10:31.94 6 01:29.4 0:02:56.7 2 14 00:48.4 0:02:18.4 26 7 0:02:58.8 20,1 1
7 111 SARNETTE EMMA FPU 1 CAVAILLON TRIATHLON CLUB 0:10:34.37 1 01:05.7 0:02:53.5 2,1 8 00:48.9 0:02:19.5 25,8 9 0:03:25.5 17,5 20
8 112 VELLA ROMAN MPU 7 CENTAURES DE PERTUIS 0:10:41.23 7 01:17.7 0:02:58.7 2 18 00:48.0 0:02:27.3 24,4 16 0:03:08.4 19,1 4
9 191 OLIPHAR JOACKIM MPU 8   0:10:43.04 8 01:11.9 0:02:57.8 2 16 00:45.8 0:02:14.0 26,9 4 0:03:32.0 17 25
10 200 GAGNAIRE NOAH MPU 9 Coureurs de fond Villeneuvois 0:10:43.12 9 01:28.9 0:02:52.0 2,1 6 00:39.7 0:02:20.1 25,7 10 0:03:20.7 17,9 13
11 178 KINGUE PRUNELLE FPU 2   0:10:45.88 2 01:24.7 0:02:38.4 2,3 3 00:55.1 0:02:24.3 24,9 14 0:03:22.4 17,8 16
12 176 JONES ARTHUR MPU 10   0:10:53.79 10 01:21.7 0:02:55.1 2,1 11 00:42.7 0:02:22.9 25,2 13 0:03:29.7 17,2 22
13 166 CATHALA CYLIAN MPU 11   0:10:57.39 11 01:16.1 0:02:56.9 2 15 00:46.9 0:02:25.0 24,8 15 0:03:31.2 17 23
14 192 PAPA BENJAMIN MPU 12   0:10:58.12 12 01:13.2 0:02:56.4 2 13 00:50.2 0:02:17.0 26,3 6 0:03:38.5 16,5 35
15 128 MOURGUES PIERRE MPU 13 LOUPIAN TRI NATURE 0:10:59.53 13 01:33.0 0:03:09.1 1,9 26 00:45.7 0:02:29.8 24 17 0:03:00.2 20 2
16 127 DOMINGUEZ LEA FPU 3 LOUPIAN TRI NATURE 0:11:04.59 3 01:10.1 0:03:04.4 2 22 00:55.0 0:02:19.4 25,8 8 0:03:34.5 16,8 29
17 125 BRUTSAERT MAXIME MPU 14 LOUPIAN TRI NATURE 0:11:07.69 14 01:23.4 0:03:03.1 2 20 00:50.9 0:02:15.7 26,5 5 0:03:33.3 16,9 26
18 110 GUZZONATO BERANGERE FPU 4 BRIVE LIMOUSIN TRIATHLON 0:11:17.21 4 01:07.4 0:02:52.8 2,1 7 00:50.0 0:02:22.7 25,2 12 0:04:03.1 14,8 62
19 151 MACQUART JULES MPU 15 TC CARCASSONNE 0:11:20.90 15 01:14.4 0:03:20.7 1,8 51 00:48.8 0:02:40.1 22,5 23 0:03:15.4 18,4 10
20 188 MARTZLUFF THEO MPU 16   0:11:39.12 16 01:38.6 0:02:55.8 2 12 00:42.9 0:02:40.1 22,5 24 0:03:40.3 16,3 39
21 195 ROQUE PIERRIC MPU 17   0:11:43.47 17 01:27.6 0:03:23.7 1,8 58 00:40.4 0:02:51.2 21 33 0:03:18.2 18,2 11
22 124 BROS ALEXIS MPU 18 LOUPIAN TRI NATURE 0:11:48.24 18 01:26.3 0:03:12.1 1,9 32 00:50.2 0:02:41.7 22,3 25 0:03:37.3 16,6 31
23 133 ARCELLA PIERRE MPU 19 LOUPIAN TRI NATURE 0:11:49.30 19 01:17.5 0:03:16.1 1,8 39 00:53.1 0:02:30.5 23,9 19 0:03:51.2 15,6 47
24 182 LE BEUZE YOUENN MPU 20   0:11:50.35 20 01:33.0 0:03:19.2 1,8 47 00:41.7 0:03:02.7 19,7 39 0:03:12.0 18,7 7
25 136 CALDIES ADRIEN MPU 21 MAT MONTPELLIER 0:11:58.71 21 01:20.7 0:03:19.1 1,8 46 00:56.3 0:02:43.5 22 28 0:03:38.5 16,5 34
26 121 GEORGEL ELIOTT MPU 22 HBC Clermont salagou 0:12:08.99 22 01:27.9 0:03:11.5 1,9 31 00:48.7 0:02:46.4 21,6 29 0:03:52.8 15,5 50
27 164 CABEL ARMAND MPU 23   0:12:13.55 23 01:41.2 0:03:02.4 2 19 00:43.6 0:03:23.1 17,7 66 0:03:21.3 17,9 14
28 129 FONTENAY NOAH MPU 24 LTN ( LOUPIAN TRI NATURE) 0:12:13.70 24 01:28.5 0:03:15.6 1,8 37 01:11.4 0:02:40.0 22,5 22 0:03:37.9 16,5 33
29 161 BONNET ISAAC MPU 25   0:12:21.09 25 01:48.7 0:02:47.7 2,1 5 00:45.7 0:02:43.2 22,1 27 0:04:14.1 14,2 71
30 107 MELLET SOREN MPU 26 ASPH TRIATHLON 0:12:23.12 26 01:26.0 0:03:05.5 1,9 23 00:56.6 0:02:49.7 21,2 31 0:04:05.4 14,7 63
31 105 ROMERA LUCIE FPU 5 AQUASPORT SAINT CYPRIEN 0:12:27.17 5 01:26.6 0:03:18.7 1,8 44 00:56.5 0:02:57.8 20,2 37 0:03:47.4 15,8 43
32 130 ROUX ANTOINE MPU 27 MAGUELONE JOGGING 0:12:27.98 27 01:56.2 0:03:09.9 1,9 28 00:52.8 0:03:02.2 19,8 38 0:03:25.4 17,5 19
33 180 LANDJERIT PIERRE MPU 28   0:12:36.51 28                      
34 155 ALVAREZ PABLO MPU 29   0:12:45.04 29 01:36.4 0:03:22.7 1,8 56 01:15.6 0:02:54.1 20,7 35 0:03:36.3 16,6 30
35 183 LETHUILLIER TIMOTHEE MPU 30   0:12:50.47 30 01:35.8 0:03:16.2 1,8 40 00:53.0 0:03:05.8 19,4 41 0:03:58.6 15,1 56
36 114 CHELMI QUENTIN MPU 31 club vallée de la sorgue 0:12:51.61 31 01:43.9 0:03:35.6 1,7 75 01:04.2 0:02:51.1 21 32 0:03:34.1 16,8 27
37 116 LOZANO GABIN MPU 32 Defiman Triathlon Pezenas 0:12:52.51 32 01:45.9 0:03:39.5 1,6 84 01:05.2 0:02:46.6 21,6 30 0:03:34.5 16,8 28
38 126 GOUDA NAËL MPU 33 LOUPIAN TRI NATURE 0:12:53.68 33 01:35.5 0:03:16.0 1,8 38 01:17.6 0:03:05.9 19,4 43 0:03:38.7 16,5 36
39 163 BOUREILLE ACHILLE MPU 34   0:12:55.85 34 01:46.7 0:03:14.9 1,8 35 00:50.6 0:03:08.3 19,1 49 0:03:53.4 15,4 51
40 158 BAZALGE TIMOTHÉ MPU 35   0:12:56.70 35 01:50.2 0:03:16.6 1,8 42 00:57.2 0:02:37.7 22,8 21 0:04:12.3 14,3 69
41 149 MASSEBEUF EMILIE FPU 6 SALINDRES TRIATHLON 0:12:57.40 6 01:39.2 0:03:03.7 2 21 00:00.8 0:03:06.1 19,3 44 0:04:08.1 14,5 66
42 139 PLANTIER SACHA MPU 36 MAT MONTPELLIER 0:13:00.71 36 01:25.9 0:03:29.2 1,7 67 00:51.9 0:03:18.7 18,1 57 0:03:53.7 15,4 52
43 137 COUDERC CLARISSE FPU 7 MAT MONTPELLIER 0:13:03.75 7 01:30.5 0:03:22.9 1,8 57 01:20.9 0:02:56.9 20,3 36 0:03:51.2 15,6 48
44 147 LAPEYRONIE SARA FPU 8 MONTPELLIER TRIATHLON 0:13:06.85 8 01:43.7 0:03:26.3 1,7 63 00:53.6 0:03:07.0 19,2 45 0:03:54.2 15,4 53
45 141 SAFI SARAH FPU 9 MAT MONTPELLIER 0:13:10.97 9 01:32.3 0:02:54.7 2,1 10 01:01.2 0:02:43.0 22,1 26 0:04:58.9 12 90
46 160 BONNANS MATÉO MPU 37   0:13:11.30 37 01:58.2 0:03:24.4 1,8 60 01:01.6 0:03:22.4 17,8 63 0:03:22.8 17,7 17
47 131 GONZALEZ REMI MPU 38 maguelonne jogging 0:13:12.70 38 02:03.3 0:03:09.3 1,9 27 00:49.6 0:03:37.2 16,6 77 0:03:31.4 17 24
48 108 PONS GABRIEL MPU 39 ATHLETIQUE CLUB CLERMONTAIS 0:13:13.30 39 02:06.8 0:03:26.7 1,7 64 00:57.8 0:03:15.1 18,5 53 0:03:25.3 17,5 18
49 194 QUIOT GIANNI MPU 40   0:13:13.36 40 01:47.0 0:03:21.2 1,8 53 00:50.1 0:03:07.1 19,2 47 0:04:07.0 14,6 64
50 193 POISSON SOLEANE FPU 10   0:13:14.45 10 01:26.8 0:03:20.5 1,8 50 00:53.8 0:03:04.0 19,6 40 0:04:27.8 13,4 80
51 134 SCOTTO DI CARLO JULES MPU 41 MAT 0:13:15.13 41 01:45.4 0:03:42.0 1,6 89 00:51.9 0:03:15.5 18,4 54 0:03:39.0 16,4 37
52 156 MELUN ALEXY MPU 42 MAT MONTPELLIER 0:13:17.40 42 01:37.9 0:03:16.6 1,8 43 00:57.5 0:03:07.7 19,2 48 0:04:17.5 14 74
53 143 LYEGRE LUCAS MPU 43 LTN ( LOUPIAN TRI NATURE) 0:13:24.93 43 01:51.0 0:03:19.9 1,8 49 00:57.8 0:03:15.5 18,4 55 0:04:01.1 14,9 61
54 198 WETTERWALD LEONCE MPU 44   0:13:25.10 44 01:51.3 0:03:30.2 1,7 69 00:52.4 0:03:21.7 17,8 62 0:03:49.1 15,7 44
55 120 LAGATHU ALICE FPU 11 GRABELS IS MAGIC 0:13:25.89 11 01:31.1 0:03:18.9 1,8 45 00:56.7 0:03:16.5 18,3 56 0:04:22.9 13,7 77
56 187 MARCHAND ARTHUR MPU 45   0:13:26.50 45 02:18.4 0:03:14.1 1,9 34 00:55.4 0:03:12.2 18,7 52 0:03:44.1 16,1 42
57 145 PERRIER MAX MPU 46 MONTPELLIER AGGLO TRIATHLON 0:13:26.70 46 02:01.3 0:03:12.8 1,9 33 01:27.2 0:02:53.3 20,8 34 0:03:51.4 15,6 49
58 101 MARTIN DIRAT LOUIS MPU 47 A.S. MURET TRIATHLON 0:13:26.80 47 01:31.1 0:03:37.6 1,7 80 00:46.3 0:03:47.6 15,8 88 0:03:43.6 16,1 40
59 144 BELAFKIH LINA FPU 12 MONTPELLIER AGGLO TRIATHLON 0:13:32.78 12 01:58.4 0:03:39.8 1,6 85 00:52.7 0:03:22.6 17,8 64 0:03:37.5 16,5 32
60 152 BIEBER LILOU FPU 13 TRI07 PRIVAS TRIATHLON 0:13:35.23 13 01:31.0 0:03:34.1 1,7 74 00:49.1 0:03:48.5 15,8 89 0:03:49.6 15,7 45
61 118 MARY ZOÉ FPU 14 FEURS TRIATHLON 0:13:36.92 14 01:32.7 0:03:16.5 1,8 41 01:07.1 0:03:12.1 18,7 51 0:04:27.6 13,5 79
62 135 CACHIA AXEL MPU 48 MAT MONTPELLIER 0:13:37.87 48 01:50.6 0:03:21.5 1,8 54 00:58.3 0:03:43.0 16,1 84 0:03:43.9 16,1 41
63 168 DETRIE GUILHEM MPU 49   0:13:38.03 49 02:37.3 0:03:22.0 1,8 55 00:54.5 0:03:30.8 17,1 72 0:03:13.3 18,6 9
64 189 MUNOZ TIAGO MPU 50   0:13:41.21 50 02:00.6 0:03:30.8 1,7 70 00:45.6 0:03:31.6 17 73 0:03:50.7 15,6 46
65 162 BOSSIS ELÉONORE FPU 15   0:13:41.35 15 01:30.6 0:03:10.8 1,9 30 01:09.9 0:03:05.9 19,4 42 0:04:42.9 12,7 83
66 140 JOLY SIMON MPU 51   0:13:49.37 51 02:01.4 0:03:37.5 1,7 79 00:57.9 0:03:44.8 16 86 0:03:26.5 17,4 21
67 175 JAGUENAUD LISE FPU 16   0:13:50.21 16 01:50.3 0:03:29.1 1,7 66 00:52.2 0:03:38.4 16,5 78 0:03:57.5 15,2 55
68 157 BASTIDE PIERRE MPU 52   0:13:51.82 52 01:59.2 0:03:10.0 1,9 29 01:00.6 0:03:10.1 18,9 50 0:04:32.0 13,2 81
69 199 ZANIOLO MONA FPU 17   0:13:53.19 17 01:45.4 0:03:38.1 1,6 81 00:48.6 0:03:41.7 16,2 82 0:03:59.5 15 57
70 153 PAIROLO EMMA FPU 18 TRIATHLON CATALAN 0:14:03.72 18 01:45.2 0:03:15.1 1,8 36 00:58.1 0:03:21.0 17,9 59 0:04:43.4 12,7 85
71 190 MUNOZ LOUKA MPU 53   0:14:14.02 53 02:06.2 0:03:36.9 1,7 78 00:49.6 0:03:44.5 16 85 0:03:54.9 15,3 54
72 104 RIGAILL JULES MPU 54 AQUASPORT SAINT CYPRIEN 0:14:17.45 54 01:22.9 0:03:39.0 1,6 83 01:21.7 0:03:39.7 16,4 80 0:04:12.3 14,3 70
73 171 GOZE-BAC SACHA MPU 55   0:14:19.38 55 02:00.1 0:03:40.6 1,6 86 01:04.7 0:03:53.0 15,4 90 0:03:39.3 16,4 38
74 132 DESVIGNES NINA FPU 19 MAT 0:14:19.52 19 02:02.4 0:03:41.4 1,6 88 00:54.4 0:03:30.5 17,1 71 0:04:10.4 14,4 67
75 196 SCHMITT LUCAS MPU 56   0:14:21.32 56 02:20.7 0:03:08.4 1,9 25 00:54.4 0:03:07.0 19,2 46 0:04:50.5 12,4 86
76 197 SIMON CAUVET ESTEBAN MPU 57   0:14:22.41 57 01:55.7 0:03:42.5 1,6 90 01:01.1 0:03:42.0 16,2 83 0:04:00.1 15 58
77 184 MACRET LALIE FPU 20   0:14:22.49 20 02:14.8 0:03:25.1 1,8 61 01:02.8 0:03:24.0 17,6 67 0:04:14.2 14,2 72
78 138 PECORARO RAPHAEL MPU 58 MAT MONTPELLIER 0:14:24.54 58 01:47.2 0:03:29.7 1,7 68 01:04.6 0:03:29.4 17,2 69 0:04:33.8 13,1 82
79 185 TAJIN IBTISSAME FPU 21   0:14:32.98 21 01:27.3 0:03:36.6 1,7 77 01:06.9 0:03:26.8 17,4 68 0:04:53.9 12,2 88
80 181 LAUNES SACHA MPU 59   0:14:36.50 59 02:42.5 0:03:19.9 1,8 48 00:00.0 0:03:33.2 16,9 74 0:04:00.8 14,9 59
81 186 MARCHAND EVA FPU 22   0:14:37.82 22 02:56.0 0:03:21.2 1,8 52 00:50.6 0:03:20.9 17,9 58 0:04:07.3 14,6 65
82 174 HUBNER TIAGO MPU 60   0:14:39.84 60 02:16.2 0:03:36.3 1,7 76 01:10.2 0:03:35.5 16,7 76 0:04:00.9 14,9 60
83 154 BOUZID--ROUQUETTE TITOUAN MPU 61 VTT ROC EVASION 0:14:49.76 61 02:15.2 0:03:25.7 1,8 62 01:16.0 0:03:29.6 17,2 70 0:04:22.1 13,7 75
84 113 VIALA EMILIE FPU 23 Chamaux béziers 0:14:54.13 23 01:25.5 0:03:32.1 1,7 72 00:55.1 0:04:49.5 12,4 91 0:04:10.9 14,3 68
85 146 FIEVET STELLA FPU 24 MONTPELLIER PAILLADE NATATION 0:15:09.51 24 02:28.0 0:03:27.7 1,7 65 01:12.0 0:03:33.8 16,8 75 0:04:26.9 13,5 78
86 103 CALMELS MARGO FPU 25 Aqualove 0:15:12.17 25 02:04.1 0:03:33.2 1,7 73 01:03.8 0:03:38.7 16,5 79 0:04:50.8 12,4 87
87 172 GRAVAT-DEJEAN DIEGO MPU 62   0:15:13.03 62 02:51.4 0:03:24.1 1,8 59 01:18.8 0:03:21.1 17,9 61 0:04:16.1 14,1 73
88 179 LACROIX-MELLIER ELISA FPU 26   0:15:16.86 26 02:32.9 0:03:38.8 1,6 82 01:00.3 0:03:41.5 16,2 81 0:04:22.9 13,7 76
89 169 DOUET LILOU FPU 27   0:15:33.01 27 02:35.9 0:03:43.9 1,6 91 01:04.0 0:03:22.7 17,8 65 0:04:43.3 12,7 84
90 165 CARMONA CLARA FPU 28   0:15:45.50 28 02:23.2 0:03:40.9 1,6 87 01:21.3 0:03:21.0 17,9 60 0:04:58.5 12,1 89
91 173 GRIBIAS-POUJOL EMMA-FLEUR FPU 29   0:16:09.51 29 02:21.5 0:03:06.6 1,9 24 01:11.8 0:03:45.6 16 87 0:05:42.5 10,5 92
92 177 KEHR ROMANE FPU 30   0:17:26.34 30 02:11.1 0:03:31.8 1,7 71 01:10.5 0:05:18.2 11,3 92 0:05:14.5 11,4 91
93 167 CHEMIN NATHANAËL MPU 63   0:36:02.15 63 04:37.3 0:24:29.8 0,2 92 01:02.4 0:02:30.7 23,9 20 0:03:19.6 18 12